Time;durP1;ratioP1;P1;durP2;ratioP2;P2;SDS_P1;SDS_P2;PMS_P1;PMS_P2;Temp;Humidity;BMP_temperature;BMP_pressure;BME280_temperature;BME280_humidity;BME280_pressure;Samples;Min_cycle;Max_cycle;Signal;HPM_P1;HPM_P2
2023/10/09 00:01:05;;;;;;;4.00;1.25;;;;;;;15.63;48.99;101405.22;5049291;28;20430;-77
2023/10/09 00:03:31;;;;;;;8.25;2.08;;;;;;;15.61;49.25;101408.09;4984411;28;20559;-77
2023/10/09 00:05:57;;;;;;;4.20;2.20;;;;;;;15.39;49.21;101364.03;5049498;28;20544;-77
2023/10/09 00:08:30;;;;;;;3.75;1.88;;;;;;;15.57;49.28;101406.66;5049854;28;20025;-77
2023/10/09 00:10:57;;;;;;;2.60;1.58;;;;;;;15.46;49.58;101385.03;5049819;28;20540;-77
2023/10/09 00:13:30;;;;;;;5.35;1.23;;;;;;;15.39;49.47;101380.28;5014346;28;20136;-77
2023/10/09 00:16:08;;;;;;;3.30;1.65;;;;;;;15.57;49.65;101403.06;5049940;28;20117;-78
2023/10/09 00:18:34;;;;;;;2.17;1.50;;;;;;;15.56;49.56;101393.25;5049675;28;20029;-78
2023/10/09 00:21:12;;;;;;;3.45;1.52;;;;;;;15.55;50.00;101407.78;5051027;28;20103;-78
2023/10/09 00:23:42;;;;;;;3.58;1.60;;;;;;;15.42;50.12;101382.72;5053639;28;20029;-78
2023/10/09 00:26:12;;;;;;;3.08;1.75;;;;;;;15.32;50.31;101365.59;5053517;28;20037;-76
2023/10/09 00:28:47;;;;;;;2.50;1.52;;;;;;;15.10;50.46;101334.13;5018230;28;20036;-77
2023/10/09 00:31:16;;;;;;;3.47;1.67;;;;;;;15.27;50.23;101385.81;5053280;28;20468;-77
2023/10/09 00:33:43;;;;;;;4.75;2.00;;;;;;;15.38;50.29;101375.88;5053453;28;20590;-77
2023/10/09 00:36:09;;;;;;;3.78;1.48;;;;;;;15.17;50.28;101363.25;5001697;28;20413;-76
2023/10/09 00:38:36;;;;;;;2.33;1.52;;;;;;;15.36;50.07;101389.56;5053008;28;20025;-77
2023/10/09 00:43:35;;;;;;;3.28;1.30;;;;;;;15.33;49.44;101388.97;5053530;28;20040;-77
2023/10/09 00:46:23;;;;;;;6.30;1.52;;;;;;;15.29;49.16;101376.72;5053075;28;20047;-77
2023/10/09 00:48:52;;;;;;;3.55;1.77;;;;;;;15.18;49.63;101375.81;5052868;28;20043;-76
2023/10/09 00:51:18;;;;;;;5.18;2.17;;;;;;;15.23;49.57;101367.25;5052903;28;20078;-77
2023/10/09 00:53:54;;;;;;;9.48;2.30;;;;;;;15.23;49.46;101357.28;5052598;28;20028;-77
2023/10/09 00:59:08;;;;;;;8.73;2.38;;;;;;;15.21;49.33;101370.09;5053106;28;20350;-76
2023/10/09 01:01:36;;;;;;;4.05;1.58;;;;;;;15.15;49.48;101380.63;5052306;28;20025;-76
2023/10/09 01:04:28;;;;;;;2.80;1.50;;;;;;;15.09;49.33;101376.63;5052225;28;20382;-76
2023/10/09 01:07:08;;;;;;;1.90;1.67;;;;;;;15.08;49.32;101388.44;5051687;28;20037;-77
2023/10/09 01:09:43;;;;;;;5.32;1.80;;;;;;;15.13;49.21;101382.63;5052475;28;20453;-77
2023/10/09 01:12:16;;;;;;;6.22;1.90;;;;;;;15.14;48.97;101379.75;5052274;28;20033;-77
2023/10/09 01:14:43;;;;;;;5.55;3.00;;;;;;;15.10;48.50;101383.75;5052518;28;20044;-77
2023/10/09 01:17:09;;;;;;;7.57;2.20;;;;;;;14.92;48.72;101379.94;5052189;28;20486;-77
2023/10/09 01:19:35;;;;;;;12.73;2.45;;;;;;;14.77;49.00;101375.03;5017030;28;20067;-77
2023/10/09 01:22:13;;;;;;;2.42;1.75;;;;;;;14.65;49.36;101393.16;5051967;28;20395;-77
2023/10/09 01:24:41;;;;;;;5.57;2.53;;;;;;;14.52;49.47;101387.13;5052227;28;20146;-77
2023/10/09 01:27:16;;;;;;;10.15;1.80;;;;;;;14.52;49.64;101397.94;5052148;28;20025;-78
2023/10/09 01:29:42;;;;;;;5.50;2.60;;;;;;;14.37;50.19;101420.91;5051952;28;20583;-77
2023/10/09 01:32:16;;;;;;;5.63;2.35;;;;;;;14.32;50.23;101404.13;5050839;28;20045;-77
2023/10/09 01:34:43;;;;;;;2.85;1.90;;;;;;;14.09;50.07;101390.72;5051867;28;20082;-78
2023/10/09 01:37:22;;;;;;;8.73;2.20;;;;;;;14.14;50.15;101439.88;5000811;28;20595;-76
2023/10/09 01:39:52;;;;;;;9.13;2.25;;;;;;;14.17;50.59;101444.19;5052343;28;20112;-77
2023/10/09 01:42:34;;;;;;;6.68;2.35;;;;;;;14.17;50.42;101436.94;5051597;28;20036;-77
2023/10/09 01:47:51;;;;;;;3.78;2.20;;;;;;;13.88;50.80;101392.50;4951331;29;20439;-77
2023/10/09 01:50:27;;;;;;;2.83;1.70;;;;;;;14.16;50.94;101456.84;4951433;29;20411;-77
2023/10/09 01:52:52;;;;;;;3.85;2.08;;;;;;;14.13;51.07;101465.22;4951536;29;20043;-78
2023/10/09 01:55:33;;;;;;;3.38;1.85;;;;;;;14.19;51.15;101466.53;4951250;29;20038;-77
2023/10/09 01:58:05;;;;;;;11.50;2.00;;;;;;;13.96;51.11;101448.66;4951306;29;20118;-77
2023/10/09 02:00:43;;;;;;;9.40;2.75;;;;;;;14.03;51.82;101466.97;4951144;29;20035;-76
2023/10/09 02:03:12;;;;;;;4.75;2.13;;;;;;;14.06;51.79;101477.53;4951272;29;20122;-78
2023/10/09 02:05:38;;;;;;;5.93;2.10;;;;;;;14.10;51.77;101468.16;4951024;29;20051;-77
2023/10/09 02:08:05;;;;;;;3.83;2.40;;;;;;;14.01;51.56;101463.53;4950946;29;20039;-77
2023/10/09 02:12:58;;;;;;;5.95;1.88;;;;;;;13.94;51.42;101477.69;4950909;29;20051;-77
2023/10/09 02:18:16;;;;;;;3.22;1.35;;;;;;;13.90;51.52;101490.59;4950818;29;20122;-78
2023/10/09 02:20:45;;;;;;;5.15;1.70;;;;;;;13.89;51.57;101494.28;4950541;29;20027;-77
2023/10/09 02:23:13;;;;;;;6.18;1.92;;;;;;;13.75;51.68;101472.06;4950429;29;20050;-77
2023/10/09 02:25:44;;;;;;;2.35;1.63;;;;;;;13.86;51.57;101501.78;5034375;28;20047;-77
2023/10/09 02:28:17;;;;;;;3.35;1.73;;;;;;;13.92;51.87;101518.38;5033491;28;20466;-77
2023/10/09 02:30:51;;;;;;;5.40;1.75;;;;;;;13.98;51.70;101528.69;5050677;28;20102;-78
2023/10/09 02:33:30;;;;;;;4.53;1.52;;;;;;;14.07;51.50;101529.78;5051027;28;20060;-76
2023/10/09 02:35:59;;;;;;;25.50;14.52;;;;;;;14.08;50.76;101535.06;5050590;28;20029;-76
2023/10/09 02:38:26;;;;;;;13.18;3.15;;;;;;;14.07;50.65;101517.13;5050686;28;20021;-78
2023/10/09 02:43:40;;;;;;;5.45;2.08;;;;;;;14.12;50.27;101519.47;5050237;28;20021;-77
2023/10/09 02:46:13;;;;;;;6.97;2.45;;;;;;;14.06;50.39;101528.94;5050913;28;20452;-77
2023/10/09 02:48:42;;;;;;;5.13;2.50;;;;;;;14.07;50.68;101541.47;5051243;28;20342;-77
2023/10/09 02:51:16;;;;;;;8.95;2.15;;;;;;;14.07;50.81;101549.59;5050880;28;20036;-77
2023/10/09 02:53:41;;;;;;;4.97;2.63;;;;;;;14.03;50.66;101537.31;5050741;28;20025;-77
2023/10/09 02:56:12;;;;;;;4.53;2.10;;;;;;;14.14;50.89;101564.34;5050808;28;20036;-77
2023/10/09 02:58:40;;;;;;;8.32;5.38;;;;;;;14.17;51.10;101552.41;5050749;28;20056;-77
2023/10/09 03:01:15;;;;;;;5.38;2.08;;;;;;;13.99;50.60;101535.81;5050384;28;20024;-77
2023/10/09 03:03:46;;;;;;;4.50;2.08;;;;;;;13.94;51.42;101535.31;5050864;28;20104;-76
2023/10/09 03:06:24;;;;;;;7.03;1.90;;;;;;;13.79;51.81;101516.81;5050498;28;20025;-77
2023/10/09 03:08:50;;;;;;;7.70;2.10;;;;;;;13.76;52.01;101520.59;5050349;28;20504;-77
2023/10/09 03:11:16;;;;;;;7.10;2.15;;;;;;;13.81;51.90;101558.94;5050424;28;20033;-78
2023/10/09 03:13:45;;;;;;;7.05;2.13;;;;;;;13.80;52.11;101567.16;5050467;28;20036;-78
2023/10/09 03:16:15;;;;;;;12.77;6.47;;;;;;;13.75;50.81;101554.03;5050062;28;20111;-77
2023/10/09 03:18:41;;;;;;;9.75;3.20;;;;;;;13.71;49.90;101571.47;5050375;28;20481;-77
2023/10/09 03:21:08;;;;;;;4.03;2.17;;;;;;;13.61;48.88;101567.78;5050161;28;20087;-77
2023/10/09 03:23:34;;;;;;;10.68;1.75;;;;;;;13.60;48.75;101566.06;5050006;28;20029;-77
2023/10/09 03:25:59;;;;;;;3.55;1.90;;;;;;;13.49;48.18;101568.75;5049939;28;20036;-79
2023/10/09 03:28:25;;;;;;;2.83;1.67;;;;;;;13.42;48.38;101578.31;5050087;28;20029;-78
2023/10/09 03:30:50;;;;;;;6.97;2.10;;;;;;;13.22;48.27;101547.44;5049876;28;20103;-78
2023/10/09 03:33:17;;;;;;;3.40;1.88;;;;;;;13.38;47.90;101588.50;5050035;28;20021;-76
2023/10/09 03:35:42;;;;;;;3.88;1.77;;;;;;;13.34;47.52;101588.84;5050345;28;20111;-76
2023/10/09 03:38:18;;;;;;;3.58;2.30;;;;;;;13.42;46.99;101586.44;5050207;28;20041;-77
2023/10/09 03:40:47;;;;;;;5.57;1.60;;;;;;;13.41;46.35;101599.09;5002812;28;20037;-77
2023/10/09 03:43:16;;;;;;;4.25;1.52;;;;;;;13.35;46.16;101593.28;5049910;28;20096;-77
2023/10/09 03:45:52;;;;;;;4.10;1.50;;;;;;;13.26;46.15;101572.38;5050065;28;20116;-76
2023/10/09 03:48:32;;;;;;;8.52;2.20;;;;;;;13.36;45.88;101597.72;5049780;28;20489;-78
2023/10/09 03:51:20;;;;;;;14.43;3.42;;;;;;;13.30;45.94;101617.09;5049791;28;20182;-78
2023/10/09 03:53:47;;;;;;;10.93;3.38;;;;;;;13.42;45.92;101618.88;5049689;28;20033;-75
2023/10/09 03:56:15;;;;;;;9.63;2.20;;;;;;;13.44;45.70;101630.41;5051447;28;20489;-76
2023/10/09 03:58:45;;;;;;;27.75;3.53;;;;;;;13.50;45.04;101630.78;5053405;28;20086;-77
2023/10/09 04:01:28;;;;;;;13.60;2.38;;;;;;;13.38;45.37;101620.94;5053375;28;20169;-75
2023/10/09 04:03:55;;;;;;;6.15;2.60;;;;;;;13.50;44.92;101619.13;5053504;28;20040;-75
2023/10/09 04:06:28;;;;;;;16.77;6.68;;;;;;;13.22;44.73;101600.59;5053081;28;20480;-75
2023/10/09 04:08:58;;;;;;;4.80;1.85;;;;;;;13.36;43.45;101632.84;5053064;28;20029;-75
2023/10/09 04:11:24;;;;;;;10.93;2.88;;;;;;;13.28;43.35;101635.25;5052835;28;20036;-75
2023/10/09 04:13:51;;;;;;;14.07;3.30;;;;;;;13.08;43.20;101629.56;5052893;28;20041;-77
2023/10/09 04:18:52;;;;;;;22.33;9.07;;;;;;;13.23;43.33;101649.13;5053116;28;20021;-75
2023/10/09 04:21:34;;;;;;;12.07;3.10;;;;;;;13.24;43.39;101650.00;5052717;28;20542;-76
2023/10/09 04:24:10;;;;;;;3.33;2.33;;;;;;;13.40;43.79;101647.81;5052471;28;20028;-75
2023/10/09 04:26:37;;;;;;;13.63;2.60;;;;;;;13.37;43.56;101661.56;5051332;28;20112;-76
2023/10/09 04:29:03;;;;;;;13.95;2.60;;;;;;;13.40;43.38;101661.34;5052485;28;20032;-75
2023/10/09 04:31:37;;;;;;;6.07;2.88;;;;;;;13.54;43.65;101677.38;5059626;28;21154;-76
2023/10/09 04:36:54;;;;;;;3.15;2.05;;;;;;;13.71;42.98;101674.22;5052746;28;20110;-77
2023/10/09 04:47:57;;;;;;;18.77;6.85;;;;;;;13.71;42.75;101676.91;5052854;28;20123;-76
2023/10/09 04:53:05;;;;;;;12.98;4.43;;;;;;;13.66;42.35;101673.72;5052886;28;20412;-76
2023/10/09 04:55:38;;;;;;;6.00;1.73;;;;;;;13.78;42.20;101683.56;5052880;28;20040;-77
2023/10/09 04:58:13;;;;;;;19.80;4.47;;;;;;;13.88;42.33;101689.97;5052563;28;20059;-76
2023/10/09 05:05:58;;;;;;;20.23;4.43;;;;;;;14.04;41.68;101695.03;5052156;28;20527;-76
2023/10/09 05:16:04;;;;;;;17.05;3.90;;;;;;;14.05;41.81;101704.88;5052062;28;20497;-76
2023/10/09 05:18:36;;;;;;;53.00;5.32;;;;;;;13.97;41.95;101699.22;5052313;28;20063;-77
2023/10/09 05:37:26;;;;;;;30.25;5.18;;;;;;;14.06;41.55;101715.59;4990049;28;20187;-76
2023/10/09 05:53:06;;;;;;;19.45;3.25;;;;;;;14.48;39.51;101751.09;4989498;28;20569;-76
2023/10/09 06:06:44;;;;;;;14.45;2.35;;;;;;;14.34;37.92;101751.34;5011860;28;20475;-77
2023/10/09 06:11:39;;;;;;;7.97;2.50;;;;;;;14.53;37.40;101778.66;5011760;28;20033;-77
2023/10/09 06:24:19;;;;;;;8.90;2.72;;;;;;;14.31;36.52;101778.63;5011235;28;20171;-77
2023/10/09 06:29:35;;;;;;;10.32;2.33;;;;;;;14.40;37.02;101805.00;5016286;28;20041;-76
2023/10/09 06:34:46;;;;;;;32.20;2.92;;;;;;;14.54;36.44;101810.16;5050825;28;20032;-77
2023/10/09 06:40:10;;;;;;;13.75;2.20;;;;;;;14.42;36.38;101779.50;5050515;28;20063;-77
2023/10/09 06:45:16;;;;;;;5.50;2.35;;;;;;;14.59;35.63;101789.00;5050917;28;20370;-76
2023/10/09 06:48:09;;;;;;;34.85;5.57;;;;;;;14.77;35.69;101809.19;5050148;28;20025;-77
2023/10/09 06:53:20;;;;;;;8.18;2.08;;;;;;;14.74;35.09;101809.41;5050094;28;20091;-77
2023/10/09 06:55:48;;;;;;;3.42;1.42;;;;;;;14.71;34.92;101790.72;5049843;28;20025;-77
2023/10/09 06:58:23;;;;;;;28.52;4.43;;;;;;;14.83;35.06;101811.41;5050010;28;20041;-77
2023/10/09 07:03:32;;;;;;;12.40;3.13;;;;;;;14.99;34.09;101814.59;5049768;28;20079;-77
2023/10/09 07:06:23;;;;;;;7.25;2.47;;;;;;;14.96;33.21;101814.84;5049871;28;20029;-77
2023/10/09 07:24:49;;;;;;;19.20;6.07;;;;;;;15.19;32.07;101805.72;5049982;28;20548;-77
2023/10/09 07:27:17;;;;;;;19.23;3.65;;;;;;;15.09;32.23;101777.66;5049609;28;20461;-77
2023/10/09 07:29:48;;;;;;;28.00;5.32;;;;;;;15.13;31.51;101783.69;5013379;28;20104;-77
2023/10/09 07:32:20;;;;;;;26.80;2.85;;;;;;;15.40;31.39;101804.94;5049781;28;20044;-76
2023/10/09 07:34:52;;;;;;;6.57;2.35;;;;;;;15.38;31.07;101787.94;5049711;28;20029;-76
2023/10/09 07:37:22;;;;;;;15.88;3.33;;;;;;;15.32;31.07;101778.44;5049679;28;20040;-78
2023/10/09 07:39:58;;;;;;;38.17;4.15;;;;;;;15.30;31.59;101771.44;5049574;28;20404;-78
2023/10/09 07:50:30;;;;;;;34.90;5.43;;;;;;;15.54;32.21;101780.25;4987166;28;20043;-77
2023/10/09 07:53:14;;;;;;;15.68;2.63;;;;;;;15.67;31.30;101789.97;4987428;28;20198;-77
2023/10/09 07:55:45;;;;;;;14.02;1.73;;;;;;;15.31;31.11;101710.81;4987402;28;20050;-77
2023/10/09 07:58:11;;;;;;;13.73;8.00;;;;;;;15.75;30.84;101767.59;4988082;28;20113;-77
2023/10/09 08:01:06;;;;;;;31.42;3.90;;;;;;;15.99;30.38;101787.19;4987329;28;20033;-77
2023/10/09 08:03:24;;;;;;;15.77;3.40;;;;;;;15.99;30.61;101794.50;4987383;28;20069;-77
2023/10/09 08:05:53;;;;;;;9.07;1.50;;;;;;;16.14;30.55;101794.06;4987727;28;20062;-78
2023/10/09 08:13:49;;;;;;;11.63;3.50;;;;;;;16.42;30.06;101776.19;4988003;28;20510;-77
2023/10/09 08:16:21;;;;;;;45.42;6.30;;;;;;;16.63;30.16;101782.53;4987525;28;20169;-77
2023/10/09 08:18:51;;;;;;;12.60;2.60;;;;;;;16.72;29.50;101779.00;4987536;28;20567;-77
2023/10/09 08:23:48;;;;;;;7.25;1.75;;;;;;;16.78;29.17;101764.84;4987714;28;20034;-77
2023/10/09 08:26:28;;;;;;;11.87;2.43;;;;;;;17.00;29.45;101782.78;4987430;28;20034;-78
2023/10/09 08:28:54;;;;;;;5.40;1.98;;;;;;;17.02;30.67;101778.09;5049327;28;20099;-78
2023/10/09 08:31:34;;;;;;;10.50;2.08;;;;;;;16.79;31.87;101774.72;5048549;28;20064;-77
2023/10/09 08:34:03;;;;;;;16.63;4.13;;;;;;;16.98;30.82;101767.63;5048861;28;20060;-78
2023/10/09 08:36:36;;;;;;;13.27;1.95;;;;;;;16.86;31.99;101778.59;5049461;28;20137;-77
2023/10/09 08:39:15;;;;;;;23.52;2.40;;;;;;;16.97;31.83;101758.59;5030954;28;20382;-77
2023/10/09 08:41:40;;;;;;;11.85;2.70;;;;;;;17.22;30.23;101766.25;5049762;28;20765;-77
2023/10/09 08:44:06;;;;;;;3.78;1.50;;;;;;;17.27;29.36;101758.56;5017713;28;20037;-78
2023/10/09 08:46:33;;;;;;;8.40;3.20;;;;;;;17.29;29.49;101758.41;5052639;28;20499;-77
2023/10/09 08:48:59;;;;;;;21.40;3.58;;;;;;;17.20;30.09;101761.97;5052257;28;20477;-76
2023/10/09 08:51:26;;;;;;;11.68;2.28;;;;;;;17.35;29.91;101738.78;5033731;28;20044;-78
2023/10/09 08:53:53;;;;;;;11.82;2.72;;;;;;;17.43;30.24;101742.53;5053169;28;20060;-76
2023/10/09 08:56:23;;;;;;;6.78;1.98;;;;;;;17.52;31.22;101762.56;5052818;28;20090;-76
2023/10/09 08:58:59;;;;;;;20.35;2.65;;;;;;;17.38;32.01;101760.28;5052637;28;20483;-76
2023/10/09 09:01:25;;;;;;;19.70;3.83;;;;;;;17.26;32.25;101729.63;5052603;28;20025;-77
2023/10/09 09:03:55;;;;;;;19.75;2.70;;;;;;;17.59;30.27;101743.84;5034968;28;20080;-77
2023/10/09 09:06:23;;;;;;;18.20;2.95;;;;;;;17.74;29.88;101762.31;5052143;28;20561;-77
2023/10/09 09:08:49;;;;;;;5.22;2.08;;;;;;;17.74;29.34;101723.38;5051931;28;20037;-77
2023/10/09 09:11:22;;;;;;;12.63;2.45;;;;;;;17.98;29.03;101753.72;5052524;28;20029;-78
2023/10/09 09:14:07;;;;;;;19.45;2.72;;;;;;;17.89;31.35;101746.41;5052528;28;20185;-77
2023/10/09 09:16:38;;;;;;;21.52;3.67;;;;;;;17.69;31.69;101739.28;5052206;28;20025;-76
2023/10/09 09:21:39;;;;;;;8.57;3.30;;;;;;;17.32;32.43;101739.94;5051815;28;20042;-77
2023/10/09 09:24:16;;;;;;;45.40;4.22;;;;;;;17.02;32.79;101687.53;5052015;28;20408;-77
2023/10/09 09:26:45;;;;;;;8.82;2.17;;;;;;;16.97;32.96;101712.38;5052152;28;20503;-77
2023/10/09 09:29:18;;;;;;;13.73;2.45;;;;;;;16.87;33.53;101716.97;5051801;28;20037;-77
2023/10/09 09:32:15;;;;;;;40.00;18.05;;;;;;;16.82;33.79;101714.66;5051620;28;20040;-76
2023/10/09 09:34:54;;;;;;;33.63;5.25;;;;;;;16.88;33.70;101696.09;5051627;28;20033;-76
2023/10/09 09:37:21;;;;;;;14.27;3.65;;;;;;;17.00;33.52;101709.41;5051640;28;20040;-77
2023/10/09 09:39:51;;;;;;;10.05;2.67;;;;;;;16.96;33.00;101709.84;5051283;28;20033;-78
2023/10/09 09:42:18;;;;;;;14.20;2.67;;;;;;;16.83;33.43;101701.94;5051316;28;20033;-76
2023/10/09 09:44:48;;;;;;;24.02;3.05;;;;;;;16.69;33.82;101692.31;5052063;28;20054;-77
2023/10/09 09:47:23;;;;;;;30.98;3.33;;;;;;;16.50;34.13;101697.66;5051517;28;20590;-77
2023/10/09 09:49:51;;;;;;;19.90;2.90;;;;;;;16.60;34.28;101697.72;5051269;28;20036;-80
2023/10/09 09:52:18;;;;;;;15.13;2.58;;;;;;;16.42;34.32;101664.03;5050751;28;20032;-77
2023/10/09 09:54:44;;;;;;;10.63;2.53;;;;;;;16.54;34.70;101658.41;5050695;28;20037;-78
2023/10/09 09:57:22;;;;;;;19.98;3.58;;;;;;;16.81;34.21;101687.63;5051466;28;20079;-77
2023/10/09 09:59:52;;;;;;;14.07;3.25;;;;;;;16.82;34.04;101686.59;5051528;28;20040;-77
2023/10/09 10:02:28;;;;;;;12.70;2.10;;;;;;;16.99;33.81;101677.78;5051693;28;20104;-78
2023/10/09 10:04:57;;;;;;;17.05;2.58;;;;;;;16.89;33.47;101671.47;5052080;28;20094;-78
2023/10/09 10:07:25;;;;;;;9.60;3.03;;;;;;;16.69;33.65;101665.16;5050867;28;20037;-77
2023/10/09 10:09:54;;;;;;;6.88;1.50;;;;;;;16.71;34.11;101671.31;5051089;28;20028;-77
2023/10/09 10:12:59;;;;;;;10.32;3.50;;;;;;;16.87;34.01;101673.50;5050736;28;20488;-77
2023/10/09 10:16:38;;;;;;;9.05;1.77;;;;;;;16.97;33.33;101660.75;4969535;28;20187;-77
2023/10/09 10:19:07;;;;;;;14.70;3.65;;;;;;;17.31;33.32;101656.63;4965672;28;20073;-77
2023/10/09 10:21:40;;;;;;;11.52;2.00;;;;;;;17.37;32.87;101658.78;4969934;28;20126;-77
2023/10/09 10:24:29;;;;;;;28.88;3.35;;;;;;;17.46;33.06;101658.94;4969442;28;20114;-77
2023/10/09 10:27:10;;;;;;;10.85;1.90;;;;;;;17.70;32.43;101649.34;4950197;28;20087;-77
2023/10/09 10:29:38;;;;;;;27.08;3.22;;;;;;;17.87;32.38;101650.44;4949448;28;20130;-77
2023/10/09 10:32:08;;;;;;;29.98;3.97;;;;;;;17.96;32.21;101646.84;4949147;28;20101;-78
2023/10/09 10:34:55;;;;;;;16.58;2.58;;;;;;;17.73;31.89;101604.66;4949529;28;20118;-77
2023/10/09 10:37:28;;;;;;;9.32;2.20;;;;;;;17.89;31.96;101637.53;4949236;28;20078;-77
2023/10/09 10:39:59;;;;;;;9.48;1.60;;;;;;;17.96;32.52;101630.50;4949346;28;20051;-78
2023/10/09 10:42:34;;;;;;;17.60;3.55;;;;;;;17.92;32.65;101626.34;4949006;28;20030;-77
2023/10/09 10:45:15;;;;;;;13.23;2.08;;;;;;;17.77;32.21;101614.22;4949143;28;20062;-76
2023/10/09 10:47:41;;;;;;;10.20;2.67;;;;;;;17.43;33.05;101616.53;4949173;28;20035;-78
2023/10/09 10:50:34;;;;;;;19.90;3.58;;;;;;;17.64;32.85;101613.69;4948940;28;20110;-77
2023/10/09 10:52:57;;;;;;;11.05;3.40;;;;;;;17.52;33.29;101618.38;4978918;28;20031;-77
2023/10/09 10:58:02;;;;;;;12.43;1.98;;;;;;;17.68;33.30;101598.78;4987276;28;20038;-76
2023/10/09 11:03:54;;;;;;;9.00;1.95;;;;;;;17.79;33.44;101593.19;4959576;28;20513;-76
2023/10/09 11:06:36;;;;;;;7.55;2.00;;;;;;;17.90;32.87;101591.13;4987273;28;20120;-78
2023/10/09 11:09:21;;;;;;;13.38;2.55;;;;;;;18.01;32.61;101581.91;4987255;28;20038;-76
2023/10/09 11:12:12;;;;;;;6.68;1.70;;;;;;;18.01;32.54;101573.75;4987901;28;20446;-78
2023/10/09 11:14:45;;;;;;;16.23;3.33;;;;;;;18.18;32.09;101583.00;4986904;28;20486;-77
2023/10/09 11:17:25;;;;;;;38.67;4.70;;;;;;;18.08;32.18;101542.19;4987240;28;20030;-77
2023/10/09 11:19:52;;;;;;;17.58;2.42;;;;;;;18.29;31.81;101567.31;4987128;28;20047;-77
2023/10/09 11:22:36;;;;;;;7.75;1.52;;;;;;;17.93;31.76;101535.53;4987079;28;20030;-77
2023/10/09 11:25:11;;;;;;;19.42;2.42;;;;;;;18.35;31.78;101577.59;4987316;28;20038;-77
2023/10/09 11:27:39;;;;;;;29.25;3.33;;;;;;;18.50;31.84;101564.34;4957285;28;20056;-77
2023/10/09 11:30:09;;;;;;;20.90;3.65;;;;;;;18.36;31.46;101551.22;4947184;28;1152396;-78
2023/10/09 11:32:37;;;;;;;14.32;2.83;;;;;;;18.51;31.24;101559.75;4988085;28;20046;-77
2023/10/09 11:35:14;;;;;;;8.35;2.03;;;;;;;18.47;31.06;101548.25;4987839;28;20035;-77
2023/10/09 11:37:42;;;;;;;12.40;3.17;;;;;;;18.53;31.08;101546.84;4987799;28;20471;-77
2023/10/09 11:40:30;;;;;;;25.77;3.85;;;;;;;18.54;31.46;101537.66;5044845;28;20033;-78
2023/10/09 11:42:59;;;;;;;9.95;2.33;;;;;;;18.64;31.12;101533.00;5049392;28;20120;-77
2023/10/09 11:45:30;;;;;;;11.32;1.88;;;;;;;18.65;31.02;101524.69;5050115;28;20097;-76
2023/10/09 11:48:21;;;;;;;14.23;2.03;;;;;;;18.48;31.70;101528.19;5049236;28;20055;-77
2023/10/09 11:55:53;;;;;;;8.18;2.08;;;;;;;18.50;31.19;101520.75;5049071;28;20033;-77
2023/10/09 11:58:23;;;;;;;18.48;1.98;;;;;;;18.50;31.53;101515.28;5048939;28;20477;-78
2023/10/09 12:00:56;;;;;;;3.63;1.98;;;;;;;18.45;31.43;101506.72;5049706;28;20043;-78
2023/10/09 12:03:32;;;;;;;17.58;2.13;;;;;;;18.60;31.20;101504.34;5014814;28;20037;-78
2023/10/09 12:06:11;;;;;;;14.38;2.72;;;;;;;18.59;31.39;101498.03;5049060;28;20639;-76
2023/10/09 12:08:38;;;;;;;14.88;1.80;;;;;;;18.51;31.43;101497.09;5031355;28;20036;-77
2023/10/09 12:11:08;;;;;;;13.05;2.33;;;;;;;18.23;32.00;101494.38;5049490;28;20040;-77
2023/10/09 12:13:33;;;;;;;5.85;2.50;;;;;;;18.31;32.06;101488.19;5049212;28;20035;-77
2023/10/09 12:15:59;;;;;;;13.98;2.45;;;;;;;18.40;32.26;101482.66;5049511;28;20025;-77
2023/10/09 12:18:24;;;;;;;7.35;2.25;;;;;;;18.52;31.91;101472.44;5053364;28;20063;-78
2023/10/09 12:20:50;;;;;;;7.93;2.10;;;;;;;18.56;32.09;101459.34;5053370;28;20393;-77
2023/10/09 12:23:21;;;;;;;26.90;3.33;;;;;;;18.70;31.80;101464.25;5053446;28;20477;-79
2023/10/09 12:25:50;;;;;;;17.67;2.38;;;;;;;18.66;32.44;101460.09;5052813;28;20051;-78
2023/10/09 12:28:20;;;;;;;13.27;1.65;;;;;;;18.77;32.08;101449.84;5052865;28;20145;-77
2023/10/09 12:30:51;;;;;;;7.30;1.95;;;;;;;18.62;32.25;101439.66;5052759;28;20132;-77
2023/10/09 12:33:19;;;;;;;69.25;6.18;;;;;;;18.61;32.67;101451.56;5052506;28;20408;-77
2023/10/09 12:35:45;;;;;;;21.02;3.05;;;;;;;18.74;32.50;101452.88;5053001;28;20031;-77
2023/10/09 12:38:12;;;;;;;12.90;2.47;;;;;;;18.42;32.57;101450.69;5052782;28;20044;-77
2023/10/09 12:40:40;;;;;;;4.35;1.70;;;;;;;18.37;33.26;101453.03;5053072;28;20425;-77
2023/10/09 12:43:15;;;;;;;10.70;1.88;;;;;;;18.24;33.55;101411.69;5052745;28;20071;-77
2023/10/09 12:45:45;;;;;;;15.38;3.22;;;;;;;18.29;33.78;101417.50;5052545;28;20440;-75
2023/10/09 12:48:10;;;;;;;30.50;4.13;;;;;;;18.52;33.19;101444.31;5017516;28;20041;-77
2023/10/09 12:50:41;;;;;;;9.52;2.22;;;;;;;18.29;33.43;101447.47;5053123;28;20032;-77
2023/10/09 12:53:08;;;;;;;8.80;2.10;;;;;;;18.08;33.08;101427.84;5053046;28;20024;-77
2023/10/09 12:55:40;;;;;;;9.55;2.25;;;;;;;17.49;33.48;101330.34;5052505;28;20029;-77
2023/10/09 12:58:07;;;;;;;7.88;2.15;;;;;;;18.05;34.64;101430.88;5052393;28;20025;-77
2023/10/09 13:00:37;;;;;;;8.70;1.95;;;;;;;18.04;35.30;101418.25;5052377;28;20239;-77
2023/10/09 13:03:18;;;;;;;9.27;2.88;;;;;;;17.78;35.02;101355.56;5052240;28;20029;-77
2023/10/09 13:05:57;;;;;;;14.35;1.90;;;;;;;18.19;34.81;101414.03;5052124;28;20040;-76
2023/10/09 13:08:31;;;;;;;5.35;2.10;;;;;;;17.83;35.10;101385.03;5052429;28;20083;-76
2023/10/09 13:11:00;;;;;;;32.80;3.53;;;;;;;18.12;35.13;101403.91;5052234;28;20550;-77
2023/10/09 13:13:47;;;;;;;7.18;1.92;;;;;;;17.89;34.92;101382.56;5052527;28;20032;-77
2023/10/09 13:16:23;;;;;;;16.83;2.65;;;;;;;17.79;35.21;101394.53;5052369;28;20043;-77
2023/10/09 13:19:09;;;;;;;3.50;1.70;;;;;;;17.90;35.04;101391.56;5051718;28;20058;-78
2023/10/09 13:21:37;;;;;;;18.13;2.22;;;;;;;17.88;35.04;101371.84;5051829;28;20029;-77
2023/10/09 13:24:03;;;;;;;14.68;2.25;;;;;;;18.11;34.85;101392.13;5051644;28;20120;-78
2023/10/09 13:26:33;;;;;;;11.60;2.47;;;;;;;18.12;34.71;101380.25;5052058;28;20480;-77
2023/10/09 13:28:59;;;;;;;10.18;2.75;;;;;;;18.01;35.24;101366.84;5051512;28;20120;-78
2023/10/09 13:31:26;;;;;;;14.55;2.80;;;;;;;17.75;35.61;101346.84;5051917;28;20152;-77
2023/10/09 13:33:56;;;;;;;14.80;2.50;;;;;;;17.59;35.09;101338.50;5051327;28;20405;-77
2023/10/09 13:36:31;;;;;;;19.67;3.38;;;;;;;17.82;35.42;101367.88;5051622;28;20065;-77
2023/10/09 13:41:47;;;;;;;10.38;2.58;;;;;;;18.02;35.21;101363.13;5051162;28;20051;-77
2023/10/09 13:44:13;;;;;;;20.92;2.92;;;;;;;17.91;35.64;101350.63;5051377;28;20033;-77
2023/10/09 13:46:41;;;;;;;17.10;2.50;;;;;;;18.00;35.88;101362.44;5051154;28;20033;-78
2023/10/09 13:49:12;;;;;;;16.98;2.50;;;;;;;17.82;35.60;101329.78;5051334;28;20017;-77
2023/10/09 13:51:43;;;;;;;8.50;1.92;;;;;;;17.80;35.56;101341.78;5051201;28;20407;-77
2023/10/09 13:54:28;;;;;;;29.90;2.72;;;;;;;17.75;35.82;101349.56;5051325;28;20036;-80
2023/10/09 13:56:54;;;;;;;20.95;2.47;;;;;;;17.53;35.90;101322.75;5051115;28;20548;-77
2023/10/09 13:59:25;;;;;;;19.98;4.03;;;;;;;17.78;35.85;101332.94;5051581;28;20107;-78
2023/10/09 14:01:59;;;;;;;15.95;3.70;;;;;;;17.81;37.01;101340.78;5051328;28;20025;-77
2023/10/09 14:04:26;;;;;;;15.85;2.60;;;;;;;17.66;37.55;101331.44;5051296;28;20033;-77
2023/10/09 14:06:56;;;;;;;9.95;2.08;;;;;;;17.69;37.47;101344.75;5051324;28;20033;-77
2023/10/09 14:09:31;;;;;;;21.58;2.25;;;;;;;17.56;37.80;101331.50;5050392;28;20447;-78
2023/10/09 14:12:08;;;;;;;17.95;2.13;;;;;;;17.49;37.94;101329.53;5051159;28;20040;-77
2023/10/09 14:14:40;;;;;;;14.75;5.53;;;;;;;17.34;38.83;101308.28;5050522;28;20709;-78
2023/10/09 14:17:12;;;;;;;20.67;2.95;;;;;;;17.61;39.04;101325.63;5050708;28;20484;-76
2023/10/09 14:19:46;;;;;;;14.35;3.33;;;;;;;17.64;38.58;101326.19;5032599;28;20051;-77
2023/10/09 14:22:15;;;;;;;19.00;2.80;;;;;;;17.55;38.74;101312.63;5051046;28;20060;-76
2023/10/09 14:24:47;;;;;;;9.52;1.77;;;;;;;17.60;38.43;101313.03;5050912;28;20057;-76
2023/10/09 14:27:19;;;;;;;21.25;3.50;;;;;;;17.52;38.77;101321.91;5050826;28;20033;-77